sensor_id;sensor_type;location;lat;lon;timestamp;P1;durP1;ratioP1;P2;durP2;ratioP2
18818;SDS011;9537;45.594;9.294;2022-09-27T00:00:58;12.53;;;10.77;;
18818;SDS011;9537;45.594;9.294;2022-09-27T00:02:01;12.43;;;10.03;;
18818;SDS011;9537;45.594;9.294;2022-09-27T00:03:02;11.17;;;9.83;;
18818;SDS011;9537;45.594;9.294;2022-09-27T00:04:04;10.07;;;9.07;;
18818;SDS011;9537;45.594;9.294;2022-09-27T00:05:06;10.37;;;9.37;;
18818;SDS011;9537;45.594;9.294;2022-09-27T00:06:12;11.20;;;9.87;;
18818;SDS011;9537;45.594;9.294;2022-09-27T00:07:14;10.50;;;9.40;;
18818;SDS011;9537;45.594;9.294;2022-09-27T00:08:16;11.23;;;9.33;;
18818;SDS011;9537;45.594;9.294;2022-09-27T00:09:19;12.00;;;10.23;;
18818;SDS011;9537;45.594;9.294;2022-09-27T00:10:21;12.57;;;10.17;;
18818;SDS011;9537;45.594;9.294;2022-09-27T00:11:24;12.90;;;9.83;;
18818;SDS011;9537;45.594;9.294;2022-09-27T00:12:28;12.10;;;10.03;;
18818;SDS011;9537;45.594;9.294;2022-09-27T00:13:29;10.67;;;9.57;;
18818;SDS011;9537;45.594;9.294;2022-09-27T00:14:32;11.23;;;9.80;;
18818;SDS011;9537;45.594;9.294;2022-09-27T00:15:33;11.90;;;10.00;;
18818;SDS011;9537;45.594;9.294;2022-09-27T00:16:36;9.83;;;8.37;;
18818;SDS011;9537;45.594;9.294;2022-09-27T00:17:37;11.30;;;10.10;;
18818;SDS011;9537;45.594;9.294;2022-09-27T00:18:40;12.87;;;10.17;;
18818;SDS011;9537;45.594;9.294;2022-09-27T00:19:41;12.67;;;10.07;;
18818;SDS011;9537;45.594;9.294;2022-09-27T00:20:43;11.97;;;9.27;;
18818;SDS011;9537;45.594;9.294;2022-09-27T00:21:46;10.90;;;9.20;;
18818;SDS011;9537;45.594;9.294;2022-09-27T00:22:49;12.73;;;9.73;;
18818;SDS011;9537;45.594;9.294;2022-09-27T00:23:50;11.67;;;9.93;;
18818;SDS011;9537;45.594;9.294;2022-09-27T00:24:52;11.57;;;10.33;;
18818;SDS011;9537;45.594;9.294;2022-09-27T00:25:54;12.17;;;9.47;;
18818;SDS011;9537;45.594;9.294;2022-09-27T00:26:57;10.27;;;9.17;;
18818;SDS011;9537;45.594;9.294;2022-09-27T00:27:58;11.40;;;10.17;;
18818;SDS011;9537;45.594;9.294;2022-09-27T00:29:01;11.70;;;10.27;;
18818;SDS011;9537;45.594;9.294;2022-09-27T00:30:02;14.50;;;10.20;;
18818;SDS011;9537;45.594;9.294;2022-09-27T00:31:04;10.63;;;9.57;;
18818;SDS011;9537;45.594;9.294;2022-09-27T00:32:17;10.77;;;8.93;;
18818;SDS011;9537;45.594;9.294;2022-09-27T00:33:19;11.50;;;9.83;;
18818;SDS011;9537;45.594;9.294;2022-09-27T00:34:21;11.80;;;10.40;;
18818;SDS011;9537;45.594;9.294;2022-09-27T00:35:24;10.93;;;9.57;;
18818;SDS011;9537;45.594;9.294;2022-09-27T00:36:25;10.90;;;9.70;;
18818;SDS011;9537;45.594;9.294;2022-09-27T00:37:30;12.37;;;9.50;;
18818;SDS011;9537;45.594;9.294;2022-09-27T00:38:30;10.47;;;9.10;;
18818;SDS011;9537;45.594;9.294;2022-09-27T00:39:33;9.90;;;8.80;;
18818;SDS011;9537;45.594;9.294;2022-09-27T00:40:34;10.97;;;8.93;;
18818;SDS011;9537;45.594;9.294;2022-09-27T00:41:36;11.03;;;9.37;;
18818;SDS011;9537;45.594;9.294;2022-09-27T00:42:38;11.07;;;9.70;;
18818;SDS011;9537;45.594;9.294;2022-09-27T00:43:43;10.50;;;9.10;;
18818;SDS011;9537;45.594;9.294;2022-09-27T00:44:59;12.93;;;11.30;;
18818;SDS011;9537;45.594;9.294;2022-09-27T00:46:06;11.53;;;9.53;;
18818;SDS011;9537;45.594;9.294;2022-09-27T00:47:09;10.90;;;9.57;;
18818;SDS011;9537;45.594;9.294;2022-09-27T00:48:14;11.93;;;9.63;;
18818;SDS011;9537;45.594;9.294;2022-09-27T00:49:22;12.93;;;9.70;;
18818;SDS011;9537;45.594;9.294;2022-09-27T00:50:29;11.10;;;10.00;;
18818;SDS011;9537;45.594;9.294;2022-09-27T00:51:35;9.57;;;8.57;;
18818;SDS011;9537;45.594;9.294;2022-09-27T00:52:41;11.30;;;10.10;;
18818;SDS011;9537;45.594;9.294;2022-09-27T00:53:48;11.67;;;10.20;;
18818;SDS011;9537;45.594;9.294;2022-09-27T00:54:55;11.27;;;9.63;;
18818;SDS011;9537;45.594;9.294;2022-09-27T00:56:04;13.73;;;10.83;;
18818;SDS011;9537;45.594;9.294;2022-09-27T00:57:10;13.53;;;10.30;;
18818;SDS011;9537;45.594;9.294;2022-09-27T00:58:11;11.07;;;9.77;;
18818;SDS011;9537;45.594;9.294;2022-09-27T00:59:16;11.63;;;10.00;;
18818;SDS011;9537;45.594;9.294;2022-09-27T01:00:22;13.67;;;10.17;;
18818;SDS011;9537;45.594;9.294;2022-09-27T01:01:24;9.97;;;8.80;;
18818;SDS011;9537;45.594;9.294;2022-09-27T01:02:25;11.97;;;9.93;;
18818;SDS011;9537;45.594;9.294;2022-09-27T01:03:30;12.03;;;9.87;;
18818;SDS011;9537;45.594;9.294;2022-09-27T01:04:36;10.27;;;9.13;;
18818;SDS011;9537;45.594;9.294;2022-09-27T01:05:40;11.13;;;9.37;;
18818;SDS011;9537;45.594;9.294;2022-09-27T01:06:41;11.67;;;9.57;;
18818;SDS011;9537;45.594;9.294;2022-09-27T01:07:46;11.07;;;9.90;;
18818;SDS011;9537;45.594;9.294;2022-09-27T01:08:47;10.07;;;9.07;;
18818;SDS011;9537;45.594;9.294;2022-09-27T01:09:49;11.60;;;10.40;;
18818;SDS011;9537;45.594;9.294;2022-09-27T01:10:52;11.97;;;9.17;;
18818;SDS011;9537;45.594;9.294;2022-09-27T01:12:06;13.00;;;9.23;;
18818;SDS011;9537;45.594;9.294;2022-09-27T01:13:18;11.20;;;9.30;;
18818;SDS011;9537;45.594;9.294;2022-09-27T01:14:34;9.37;;;8.47;;
18818;SDS011;9537;45.594;9.294;2022-09-27T01:15:45;9.93;;;8.77;;
18818;SDS011;9537;45.594;9.294;2022-09-27T01:16:53;10.70;;;9.27;;
18818;SDS011;9537;45.594;9.294;2022-09-27T01:19:33;10.87;;;9.03;;
18818;SDS011;9537;45.594;9.294;2022-09-27T01:22:31;11.00;;;8.97;;
18818;SDS011;9537;45.594;9.294;2022-09-27T01:23:44;11.87;;;9.23;;
18818;SDS011;9537;45.594;9.294;2022-09-27T01:24:55;11.50;;;9.40;;
18818;SDS011;9537;45.594;9.294;2022-09-27T01:26:15;10.63;;;8.73;;
18818;SDS011;9537;45.594;9.294;2022-09-27T01:27:32;10.57;;;9.47;;
18818;SDS011;9537;45.594;9.294;2022-09-27T01:28:57;12.27;;;9.27;;
18818;SDS011;9537;45.594;9.294;2022-09-27T01:30:14;9.77;;;8.73;;
18818;SDS011;9537;45.594;9.294;2022-09-27T01:31:22;10.63;;;8.87;;
18818;SDS011;9537;45.594;9.294;2022-09-27T01:32:27;13.23;;;9.90;;
18818;SDS011;9537;45.594;9.294;2022-09-27T01:33:39;10.83;;;9.57;;
18818;SDS011;9537;45.594;9.294;2022-09-27T01:34:46;12.10;;;10.80;;
18818;SDS011;9537;45.594;9.294;2022-09-27T01:35:57;10.03;;;9.03;;
18818;SDS011;9537;45.594;9.294;2022-09-27T01:37:07;10.07;;;9.00;;
18818;SDS011;9537;45.594;9.294;2022-09-27T01:38:19;11.00;;;9.30;;
18818;SDS011;9537;45.594;9.294;2022-09-27T01:39:33;12.57;;;10.53;;
18818;SDS011;9537;45.594;9.294;2022-09-27T01:40:47;14.33;;;9.80;;
18818;SDS011;9537;45.594;9.294;2022-09-27T01:41:55;11.60;;;8.97;;
18818;SDS011;9537;45.594;9.294;2022-09-27T01:43:05;10.90;;;9.20;;
18818;SDS011;9537;45.594;9.294;2022-09-27T01:44:12;12.60;;;9.67;;
18818;SDS011;9537;45.594;9.294;2022-09-27T01:45:22;13.73;;;10.00;;
18818;SDS011;9537;45.594;9.294;2022-09-27T01:46:30;14.53;;;11.07;;
18818;SDS011;9537;45.594;9.294;2022-09-27T01:47:38;10.43;;;9.00;;
18818;SDS011;9537;45.594;9.294;2022-09-27T01:48:43;11.67;;;10.47;;
18818;SDS011;9537;45.594;9.294;2022-09-27T01:49:48;12.43;;;10.57;;
18818;SDS011;9537;45.594;9.294;2022-09-27T01:50:56;11.70;;;9.97;;
18818;SDS011;9537;45.594;9.294;2022-09-27T01:52:04;11.60;;;9.83;;
18818;SDS011;9537;45.594;9.294;2022-09-27T01:53:09;10.80;;;9.43;;
18818;SDS011;9537;45.594;9.294;2022-09-27T01:54:18;11.07;;;9.93;;
18818;SDS011;9537;45.594;9.294;2022-09-27T01:55:25;12.70;;;11.40;;
18818;SDS011;9537;45.594;9.294;2022-09-27T01:56:32;12.33;;;10.97;;
18818;SDS011;9537;45.594;9.294;2022-09-27T01:57:37;11.17;;;10.00;;
18818;SDS011;9537;45.594;9.294;2022-09-27T01:58:41;13.17;;;9.90;;
18818;SDS011;9537;45.594;9.294;2022-09-27T01:59:48;12.80;;;10.77;;
18818;SDS011;9537;45.594;9.294;2022-09-27T02:00:55;14.83;;;10.90;;
18818;SDS011;9537;45.594;9.294;2022-09-27T02:01:58;11.20;;;9.90;;
18818;SDS011;9537;45.594;9.294;2022-09-27T02:03:03;11.43;;;9.93;;
18818;SDS011;9537;45.594;9.294;2022-09-27T02:04:11;12.50;;;10.93;;
18818;SDS011;9537;45.594;9.294;2022-09-27T02:05:17;11.47;;;10.27;;
18818;SDS011;9537;45.594;9.294;2022-09-27T02:06:22;15.90;;;11.30;;
18818;SDS011;9537;45.594;9.294;2022-09-27T02:07:30;12.60;;;11.13;;
18818;SDS011;9537;45.594;9.294;2022-09-27T02:08:35;12.27;;;10.90;;
18818;SDS011;9537;45.594;9.294;2022-09-27T02:09:43;10.93;;;9.80;;
18818;SDS011;9537;45.594;9.294;2022-09-27T02:10:49;10.93;;;9.73;;
18818;SDS011;9537;45.594;9.294;2022-09-27T02:11:55;11.10;;;9.93;;
18818;SDS011;9537;45.594;9.294;2022-09-27T02:13:04;13.27;;;10.67;;
18818;SDS011;9537;45.594;9.294;2022-09-27T02:14:14;11.77;;;10.43;;
18818;SDS011;9537;45.594;9.294;2022-09-27T02:15:19;13.10;;;9.87;;
18818;SDS011;9537;45.594;9.294;2022-09-27T02:16:26;11.13;;;9.90;;
18818;SDS011;9537;45.594;9.294;2022-09-27T02:17:36;11.43;;;10.13;;
18818;SDS011;9537;45.594;9.294;2022-09-27T02:18:44;12.43;;;9.63;;
18818;SDS011;9537;45.594;9.294;2022-09-27T02:19:53;11.60;;;10.10;;
18818;SDS011;9537;45.594;9.294;2022-09-27T02:21:02;11.73;;;9.63;;
18818;SDS011;9537;45.594;9.294;2022-09-27T02:22:11;11.77;;;9.97;;
18818;SDS011;9537;45.594;9.294;2022-09-27T02:23:17;12.87;;;10.13;;
18818;SDS011;9537;45.594;9.294;2022-09-27T02:24:26;12.47;;;11.13;;
18818;SDS011;9537;45.594;9.294;2022-09-27T02:25:34;12.10;;;10.73;;
18818;SDS011;9537;45.594;9.294;2022-09-27T02:26:42;13.80;;;11.53;;
18818;SDS011;9537;45.594;9.294;2022-09-27T02:27:48;12.43;;;9.83;;
18818;SDS011;9537;45.594;9.294;2022-09-27T02:28:59;11.57;;;10.17;;
18818;SDS011;9537;45.594;9.294;2022-09-27T02:30:06;11.87;;;10.30;;
18818;SDS011;9537;45.594;9.294;2022-09-27T02:31:12;14.43;;;10.67;;
18818;SDS011;9537;45.594;9.294;2022-09-27T02:32:14;11.43;;;9.70;;
18818;SDS011;9537;45.594;9.294;2022-09-27T02:33:17;14.07;;;10.23;;
18818;SDS011;9537;45.594;9.294;2022-09-27T02:34:21;14.50;;;10.10;;
18818;SDS011;9537;45.594;9.294;2022-09-27T02:35:26;10.70;;;9.47;;
18818;SDS011;9537;45.594;9.294;2022-09-27T02:36:31;14.03;;;10.10;;
18818;SDS011;9537;45.594;9.294;2022-09-27T02:37:33;11.93;;;10.60;;
18818;SDS011;9537;45.594;9.294;2022-09-27T02:38:34;12.53;;;11.23;;
18818;SDS011;9537;45.594;9.294;2022-09-27T02:39:36;14.50;;;12.20;;
18818;SDS011;9537;45.594;9.294;2022-09-27T02:40:41;14.87;;;11.80;;
18818;SDS011;9537;45.594;9.294;2022-09-27T02:41:46;13.73;;;11.73;;
18818;SDS011;9537;45.594;9.294;2022-09-27T02:42:47;13.20;;;11.70;;
18818;SDS011;9537;45.594;9.294;2022-09-27T02:43:50;12.57;;;11.27;;
18818;SDS011;9537;45.594;9.294;2022-09-27T02:44:52;17.50;;;11.37;;
18818;SDS011;9537;45.594;9.294;2022-09-27T02:45:59;14.73;;;11.70;;
18818;SDS011;9537;45.594;9.294;2022-09-27T02:47:24;13.43;;;11.37;;
18818;SDS011;9537;45.594;9.294;2022-09-27T02:48:36;14.33;;;11.20;;
18818;SDS011;9537;45.594;9.294;2022-09-27T02:49:54;14.67;;;11.47;;
18818;SDS011;9537;45.594;9.294;2022-09-27T02:51:12;12.07;;;10.83;;
18818;SDS011;9537;45.594;9.294;2022-09-27T02:52:36;11.50;;;10.20;;
18818;SDS011;9537;45.594;9.294;2022-09-27T02:53:47;13.10;;;9.97;;
18818;SDS011;9537;45.594;9.294;2022-09-27T02:54:59;13.13;;;10.60;;
18818;SDS011;9537;45.594;9.294;2022-09-27T02:56:15;14.93;;;11.30;;
18818;SDS011;9537;45.594;9.294;2022-09-27T02:57:26;13.60;;;10.97;;
18818;SDS011;9537;45.594;9.294;2022-09-27T02:58:40;16.43;;;12.87;;
18818;SDS011;9537;45.594;9.294;2022-09-27T02:59:49;12.90;;;11.33;;
18818;SDS011;9537;45.594;9.294;2022-09-27T03:01:00;14.57;;;12.53;;
18818;SDS011;9537;45.594;9.294;2022-09-27T03:02:09;13.27;;;10.57;;
18818;SDS011;9537;45.594;9.294;2022-09-27T03:03:17;12.10;;;10.37;;
18818;SDS011;9537;45.594;9.294;2022-09-27T03:04:24;14.87;;;11.57;;
18818;SDS011;9537;45.594;9.294;2022-09-27T03:05:32;15.00;;;11.53;;
18818;SDS011;9537;45.594;9.294;2022-09-27T03:06:38;13.57;;;11.13;;
18818;SDS011;9537;45.594;9.294;2022-09-27T03:07:43;14.73;;;12.17;;
18818;SDS011;9537;45.594;9.294;2022-09-27T03:08:44;14.27;;;12.23;;
18818;SDS011;9537;45.594;9.294;2022-09-27T03:09:48;13.87;;;11.47;;
18818;SDS011;9537;45.594;9.294;2022-09-27T03:10:49;12.33;;;11.03;;
18818;SDS011;9537;45.594;9.294;2022-09-27T03:11:51;16.43;;;12.87;;
18818;SDS011;9537;45.594;9.294;2022-09-27T03:12:52;15.03;;;12.57;;
18818;SDS011;9537;45.594;9.294;2022-09-27T03:13:55;13.27;;;11.77;;
18818;SDS011;9537;45.594;9.294;2022-09-27T03:14:57;15.57;;;12.20;;
18818;SDS011;9537;45.594;9.294;2022-09-27T03:16:00;14.40;;;12.10;;
18818;SDS011;9537;45.594;9.294;2022-09-27T03:17:01;13.17;;;11.13;;
18818;SDS011;9537;45.594;9.294;2022-09-27T03:18:03;11.60;;;10.40;;
18818;SDS011;9537;45.594;9.294;2022-09-27T03:19:06;12.67;;;10.40;;
18818;SDS011;9537;45.594;9.294;2022-09-27T03:20:09;12.97;;;11.40;;
18818;SDS011;9537;45.594;9.294;2022-09-27T03:21:10;13.30;;;11.63;;
18818;SDS011;9537;45.594;9.294;2022-09-27T03:22:12;14.63;;;11.43;;
18818;SDS011;9537;45.594;9.294;2022-09-27T03:23:13;12.83;;;10.77;;
18818;SDS011;9537;45.594;9.294;2022-09-27T03:24:15;13.43;;;12.03;;
18818;SDS011;9537;45.594;9.294;2022-09-27T03:25:16;12.73;;;11.40;;
18818;SDS011;9537;45.594;9.294;2022-09-27T03:26:19;11.70;;;10.47;;
18818;SDS011;9537;45.594;9.294;2022-09-27T03:27:20;12.93;;;11.47;;
18818;SDS011;9537;45.594;9.294;2022-09-27T03:28:22;12.80;;;10.23;;
18818;SDS011;9537;45.594;9.294;2022-09-27T03:29:24;13.80;;;11.50;;
18818;SDS011;9537;45.594;9.294;2022-09-27T03:30:26;12.50;;;11.20;;
18818;SDS011;9537;45.594;9.294;2022-09-27T03:31:27;12.70;;;10.20;;
18818;SDS011;9537;45.594;9.294;2022-09-27T03:32:29;11.13;;;9.93;;
18818;SDS011;9537;45.594;9.294;2022-09-27T03:33:30;15.13;;;11.50;;
18818;SDS011;9537;45.594;9.294;2022-09-27T03:34:34;13.80;;;11.40;;
18818;SDS011;9537;45.594;9.294;2022-09-27T03:35:35;13.37;;;11.87;;
18818;SDS011;9537;45.594;9.294;2022-09-27T03:36:37;16.90;;;12.47;;
18818;SDS011;9537;45.594;9.294;2022-09-27T03:37:39;13.17;;;11.87;;
18818;SDS011;9537;45.594;9.294;2022-09-27T03:38:40;14.13;;;11.77;;
18818;SDS011;9537;45.594;9.294;2022-09-27T03:39:45;11.93;;;9.93;;
18818;SDS011;9537;45.594;9.294;2022-09-27T03:40:46;13.90;;;11.80;;
18818;SDS011;9537;45.594;9.294;2022-09-27T03:41:48;12.77;;;11.30;;
18818;SDS011;9537;45.594;9.294;2022-09-27T03:42:49;12.53;;;10.50;;
18818;SDS011;9537;45.594;9.294;2022-09-27T03:43:51;13.30;;;11.80;;
18818;SDS011;9537;45.594;9.294;2022-09-27T03:44:52;13.60;;;10.40;;
18818;SDS011;9537;45.594;9.294;2022-09-27T03:45:54;12.10;;;10.03;;
18818;SDS011;9537;45.594;9.294;2022-09-27T03:46:55;11.53;;;10.20;;
18818;SDS011;9537;45.594;9.294;2022-09-27T03:47:57;12.87;;;10.60;;
18818;SDS011;9537;45.594;9.294;2022-09-27T03:48:59;14.37;;;10.80;;
18818;SDS011;9537;45.594;9.294;2022-09-27T03:50:02;13.77;;;10.97;;
18818;SDS011;9537;45.594;9.294;2022-09-27T03:51:04;16.13;;;11.17;;
18818;SDS011;9537;45.594;9.294;2022-09-27T03:52:07;12.87;;;10.70;;
18818;SDS011;9537;45.594;9.294;2022-09-27T03:53:08;12.70;;;10.40;;
18818;SDS011;9537;45.594;9.294;2022-09-27T03:54:10;14.80;;;11.27;;
18818;SDS011;9537;45.594;9.294;2022-09-27T03:55:12;12.90;;;11.27;;
18818;SDS011;9537;45.594;9.294;2022-09-27T03:56:13;15.17;;;11.90;;
18818;SDS011;9537;45.594;9.294;2022-09-27T03:57:15;13.50;;;11.73;;
18818;SDS011;9537;45.594;9.294;2022-09-27T03:58:17;13.30;;;10.93;;
18818;SDS011;9537;45.594;9.294;2022-09-27T03:59:19;12.73;;;10.97;;
18818;SDS011;9537;45.594;9.294;2022-09-27T04:00:20;13.67;;;11.73;;
18818;SDS011;9537;45.594;9.294;2022-09-27T04:01:22;14.03;;;10.77;;
18818;SDS011;9537;45.594;9.294;2022-09-27T04:02:23;14.23;;;10.80;;
18818;SDS011;9537;45.594;9.294;2022-09-27T04:03:25;13.30;;;10.77;;
18818;SDS011;9537;45.594;9.294;2022-09-27T04:04:26;12.67;;;11.37;;
18818;SDS011;9537;45.594;9.294;2022-09-27T04:05:30;12.40;;;11.10;;
18818;SDS011;9537;45.594;9.294;2022-09-27T04:06:32;13.13;;;11.27;;
18818;SDS011;9537;45.594;9.294;2022-09-27T04:07:34;14.37;;;10.90;;
18818;SDS011;9537;45.594;9.294;2022-09-27T04:08:35;12.53;;;11.20;;
18818;SDS011;9537;45.594;9.294;2022-09-27T04:09:37;15.90;;;12.13;;
18818;SDS011;9537;45.594;9.294;2022-09-27T04:10:38;12.37;;;11.07;;
18818;SDS011;9537;45.594;9.294;2022-09-27T04:11:40;15.13;;;11.87;;
18818;SDS011;9537;45.594;9.294;2022-09-27T04:12:43;17.03;;;11.33;;
18818;SDS011;9537;45.594;9.294;2022-09-27T04:13:45;13.70;;;11.17;;
18818;SDS011;9537;45.594;9.294;2022-09-27T04:14:48;12.73;;;10.97;;
18818;SDS011;9537;45.594;9.294;2022-09-27T04:15:50;15.40;;;11.80;;
18818;SDS011;9537;45.594;9.294;2022-09-27T04:16:51;13.50;;;10.60;;
18818;SDS011;9537;45.594;9.294;2022-09-27T04:17:53;11.83;;;9.73;;
18818;SDS011;9537;45.594;9.294;2022-09-27T04:18:54;12.33;;;10.53;;
18818;SDS011;9537;45.594;9.294;2022-09-27T04:19:56;11.40;;;10.20;;
18818;SDS011;9537;45.594;9.294;2022-09-27T04:20:59;11.90;;;10.60;;
18818;SDS011;9537;45.594;9.294;2022-09-27T04:22:01;11.63;;;10.43;;
18818;SDS011;9537;45.594;9.294;2022-09-27T04:23:02;12.27;;;9.97;;
18818;SDS011;9537;45.594;9.294;2022-09-27T04:24:04;11.57;;;10.37;;
18818;SDS011;9537;45.594;9.294;2022-09-27T04:25:06;12.23;;;10.90;;
18818;SDS011;9537;45.594;9.294;2022-09-27T04:26:09;14.07;;;10.93;;
18818;SDS011;9537;45.594;9.294;2022-09-27T04:27:10;12.40;;;10.80;;
18818;SDS011;9537;45.594;9.294;2022-09-27T04:28:12;13.53;;;11.10;;
18818;SDS011;9537;45.594;9.294;2022-09-27T04:29:13;11.37;;;10.17;;
18818;SDS011;9537;45.594;9.294;2022-09-27T04:30:16;12.10;;;10.80;;
18818;SDS011;9537;45.594;9.294;2022-09-27T04:31:17;11.37;;;9.87;;
18818;SDS011;9537;45.594;9.294;2022-09-27T04:32:20;13.37;;;11.10;;
18818;SDS011;9537;45.594;9.294;2022-09-27T04:33:21;14.37;;;11.50;;
18818;SDS011;9537;45.594;9.294;2022-09-27T04:34:24;11.87;;;10.60;;
18818;SDS011;9537;45.594;9.294;2022-09-27T04:35:39;12.43;;;10.33;;
18818;SDS011;9537;45.594;9.294;2022-09-27T04:37:02;11.30;;;9.73;;
18818;SDS011;9537;45.594;9.294;2022-09-27T04:38:03;12.63;;;10.10;;
18818;SDS011;9537;45.594;9.294;2022-09-27T04:39:06;13.07;;;9.50;;
18818;SDS011;9537;45.594;9.294;2022-09-27T04:40:08;12.97;;;10.03;;
18818;SDS011;9537;45.594;9.294;2022-09-27T04:41:11;11.63;;;9.30;;
18818;SDS011;9537;45.594;9.294;2022-09-27T04:42:12;12.73;;;10.10;;
18818;SDS011;9537;45.594;9.294;2022-09-27T04:43:14;10.00;;;8.80;;
18818;SDS011;9537;45.594;9.294;2022-09-27T04:44:14;12.10;;;10.70;;
18818;SDS011;9537;45.594;9.294;2022-09-27T04:45:17;11.23;;;9.90;;
18818;SDS011;9537;45.594;9.294;2022-09-27T04:46:18;14.90;;;10.63;;
18818;SDS011;9537;45.594;9.294;2022-09-27T04:47:20;13.73;;;10.80;;
18818;SDS011;9537;45.594;9.294;2022-09-27T04:48:22;13.67;;;9.73;;
18818;SDS011;9537;45.594;9.294;2022-09-27T04:49:24;10.37;;;9.33;;
18818;SDS011;9537;45.594;9.294;2022-09-27T04:50:25;12.17;;;9.73;;
18818;SDS011;9537;45.594;9.294;2022-09-27T04:51:27;11.23;;;10.03;;
18818;SDS011;9537;45.594;9.294;2022-09-27T04:52:29;15.20;;;11.03;;
18818;SDS011;9537;45.594;9.294;2022-09-27T04:53:32;12.53;;;11.00;;
18818;SDS011;9537;45.594;9.294;2022-09-27T04:54:33;14.07;;;10.23;;
18818;SDS011;9537;45.594;9.294;2022-09-27T04:55:35;12.03;;;10.37;;
18818;SDS011;9537;45.594;9.294;2022-09-27T04:56:36;11.57;;;10.37;;
18818;SDS011;9537;45.594;9.294;2022-09-27T04:57:38;10.83;;;9.73;;
18818;SDS011;9537;45.594;9.294;2022-09-27T04:58:39;12.87;;;10.27;;
18818;SDS011;9537;45.594;9.294;2022-09-27T04:59:41;11.37;;;9.97;;
18818;SDS011;9537;45.594;9.294;2022-09-27T05:00:42;11.60;;;8.90;;
18818;SDS011;9537;45.594;9.294;2022-09-27T05:01:44;11.57;;;9.43;;
18818;SDS011;9537;45.594;9.294;2022-09-27T05:02:46;9.73;;;8.60;;
18818;SDS011;9537;45.594;9.294;2022-09-27T05:03:48;9.33;;;8.40;;
18818;SDS011;9537;45.594;9.294;2022-09-27T05:04:49;9.03;;;8.13;;
18818;SDS011;9537;45.594;9.294;2022-09-27T05:05:51;9.40;;;8.33;;
18818;SDS011;9537;45.594;9.294;2022-09-27T05:06:53;10.13;;;9.00;;
18818;SDS011;9537;45.594;9.294;2022-09-27T05:07:56;10.90;;;9.80;;
18818;SDS011;9537;45.594;9.294;2022-09-27T05:08:57;11.83;;;9.23;;
18818;SDS011;9537;45.594;9.294;2022-09-27T05:09:59;10.53;;;9.10;;
18818;SDS011;9537;45.594;9.294;2022-09-27T05:11:00;10.93;;;9.20;;
18818;SDS011;9537;45.594;9.294;2022-09-27T05:12:02;8.73;;;7.83;;
18818;SDS011;9537;45.594;9.294;2022-09-27T05:13:23;11.33;;;9.43;;
18818;SDS011;9537;45.594;9.294;2022-09-27T05:14:25;10.17;;;8.53;;
18818;SDS011;9537;45.594;9.294;2022-09-27T05:15:26;9.93;;;8.77;;
18818;SDS011;9537;45.594;9.294;2022-09-27T05:16:28;11.23;;;9.50;;
18818;SDS011;9537;45.594;9.294;2022-09-27T05:17:29;12.03;;;9.20;;
18818;SDS011;9537;45.594;9.294;2022-09-27T05:18:31;9.67;;;8.67;;
18818;SDS011;9537;45.594;9.294;2022-09-27T05:19:33;9.37;;;8.17;;
18818;SDS011;9537;45.594;9.294;2022-09-27T05:20:35;12.50;;;9.87;;
18818;SDS011;9537;45.594;9.294;2022-09-27T05:21:36;10.87;;;8.77;;
18818;SDS011;9537;45.594;9.294;2022-09-27T05:22:38;12.07;;;9.53;;
18818;SDS011;9537;45.594;9.294;2022-09-27T05:23:41;10.03;;;8.67;;
18818;SDS011;9537;45.594;9.294;2022-09-27T05:24:50;10.43;;;8.33;;
18818;SDS011;9537;45.594;9.294;2022-09-27T05:25:55;9.87;;;8.07;;
18818;SDS011;9537;45.594;9.294;2022-09-27T05:26:58;10.20;;;8.10;;
18818;SDS011;9537;45.594;9.294;2022-09-27T05:28:00;11.27;;;8.23;;
18818;SDS011;9537;45.594;9.294;2022-09-27T05:29:02;9.43;;;8.20;;
18818;SDS011;9537;45.594;9.294;2022-09-27T05:30:20;12.67;;;8.30;;
18818;SDS011;9537;45.594;9.294;2022-09-27T05:31:30;8.73;;;7.83;;
18818;SDS011;9537;45.594;9.294;2022-09-27T05:32:32;9.63;;;8.10;;
18818;SDS011;9537;45.594;9.294;2022-09-27T05:33:50;9.43;;;8.43;;
18818;SDS011;9537;45.594;9.294;2022-09-27T05:34:52;8.17;;;7.20;;
18818;SDS011;9537;45.594;9.294;2022-09-27T05:35:54;7.67;;;6.97;;
18818;SDS011;9537;45.594;9.294;2022-09-27T05:36:57;7.40;;;6.73;;
18818;SDS011;9537;45.594;9.294;2022-09-27T05:37:58;8.60;;;7.07;;
18818;SDS011;9537;45.594;9.294;2022-09-27T05:39:02;8.23;;;7.30;;
18818;SDS011;9537;45.594;9.294;2022-09-27T05:40:04;8.60;;;7.10;;
18818;SDS011;9537;45.594;9.294;2022-09-27T05:41:07;8.93;;;7.00;;
18818;SDS011;9537;45.594;9.294;2022-09-27T05:42:10;7.47;;;6.67;;
18818;SDS011;9537;45.594;9.294;2022-09-27T05:43:11;8.10;;;7.30;;
18818;SDS011;9537;45.594;9.294;2022-09-27T05:44:13;8.30;;;7.43;;
18818;SDS011;9537;45.594;9.294;2022-09-27T05:45:15;9.30;;;8.27;;
18818;SDS011;9537;45.594;9.294;2022-09-27T05:46:17;9.27;;;7.70;;
18818;SDS011;9537;45.594;9.294;2022-09-27T05:47:18;12.80;;;9.30;;
18818;SDS011;9537;45.594;9.294;2022-09-27T05:48:20;12.77;;;10.23;;
18818;SDS011;9537;45.594;9.294;2022-09-27T05:49:21;14.53;;;10.27;;
18818;SDS011;9537;45.594;9.294;2022-09-27T05:50:24;12.33;;;10.43;;
18818;SDS011;9537;45.594;9.294;2022-09-27T05:51:26;13.47;;;10.90;;
18818;SDS011;9537;45.594;9.294;2022-09-27T05:52:28;11.20;;;9.40;;
18818;SDS011;9537;45.594;9.294;2022-09-27T05:53:29;10.87;;;9.37;;
18818;SDS011;9537;45.594;9.294;2022-09-27T05:54:33;10.07;;;9.00;;
18818;SDS011;9537;45.594;9.294;2022-09-27T05:55:34;10.37;;;7.73;;
18818;SDS011;9537;45.594;9.294;2022-09-27T05:56:36;13.77;;;8.00;;
18818;SDS011;9537;45.594;9.294;2022-09-27T05:57:37;8.17;;;6.63;;
18818;SDS011;9537;45.594;9.294;2022-09-27T05:58:39;6.80;;;6.17;;
18818;SDS011;9537;45.594;9.294;2022-09-27T05:59:40;7.27;;;6.57;;
18818;SDS011;9537;45.594;9.294;2022-09-27T06:00:42;7.37;;;6.63;;
18818;SDS011;9537;45.594;9.294;2022-09-27T06:01:43;7.50;;;6.17;;
18818;SDS011;9537;45.594;9.294;2022-09-27T06:02:51;6.60;;;5.93;;
18818;SDS011;9537;45.594;9.294;2022-09-27T06:03:54;7.10;;;6.43;;
18818;SDS011;9537;45.594;9.294;2022-09-27T06:04:57;6.10;;;5.50;;
18818;SDS011;9537;45.594;9.294;2022-09-27T06:06:00;5.60;;;4.97;;
18818;SDS011;9537;45.594;9.294;2022-09-27T06:07:05;9.50;;;8.23;;
18818;SDS011;9537;45.594;9.294;2022-09-27T06:08:07;9.87;;;7.80;;
18818;SDS011;9537;45.594;9.294;2022-09-27T06:09:11;8.60;;;7.47;;
18818;SDS011;9537;45.594;9.294;2022-09-27T06:10:15;8.20;;;7.33;;
18818;SDS011;9537;45.594;9.294;2022-09-27T06:11:17;8.20;;;7.40;;
18818;SDS011;9537;45.594;9.294;2022-09-27T06:12:18;7.73;;;7.03;;
18818;SDS011;9537;45.594;9.294;2022-09-27T06:13:20;7.60;;;6.80;;
18818;SDS011;9537;45.594;9.294;2022-09-27T06:14:21;7.50;;;6.80;;
18818;SDS011;9537;45.594;9.294;2022-09-27T06:15:23;7.27;;;6.57;;
18818;SDS011;9537;45.594;9.294;2022-09-27T06:16:25;6.73;;;6.13;;
18818;SDS011;9537;45.594;9.294;2022-09-27T06:17:27;8.27;;;6.27;;
18818;SDS011;9537;45.594;9.294;2022-09-27T06:18:28;8.50;;;7.70;;
18818;SDS011;9537;45.594;9.294;2022-09-27T06:19:30;8.53;;;7.73;;
18818;SDS011;9537;45.594;9.294;2022-09-27T06:20:31;9.30;;;8.40;;
18818;SDS011;9537;45.594;9.294;2022-09-27T06:21:34;10.47;;;8.40;;
18818;SDS011;9537;45.594;9.294;2022-09-27T06:22:35;9.20;;;7.80;;
18818;SDS011;9537;45.594;9.294;2022-09-27T06:23:38;10.53;;;7.83;;
18818;SDS011;9537;45.594;9.294;2022-09-27T06:24:39;8.03;;;7.27;;
18818;SDS011;9537;45.594;9.294;2022-09-27T06:25:42;8.07;;;7.27;;
18818;SDS011;9537;45.594;9.294;2022-09-27T06:26:43;8.30;;;7.43;;
18818;SDS011;9537;45.594;9.294;2022-09-27T06:27:46;7.83;;;7.13;;
18818;SDS011;9537;45.594;9.294;2022-09-27T06:28:47;8.87;;;8.07;;
18818;SDS011;9537;45.594;9.294;2022-09-27T06:29:49;8.67;;;7.77;;